Terminal Aerodrome Forecast
Issued by NWS

Current Version | Previous Version | Text Only | Print | Product List | Glossary On
Versions: 1 2 3 4 5 6 7 8 9 10 11 12 13
287
FTUS41 KPBZ 231743
TAFBVI
TAF
KBVI 231743Z 2318/2418 24015G26KT P6SM -SHRA OVC025
     FM240600 27011G20KT P6SM OVC015
     FM241500 28010G18KT P6SM OVC025=

USA.gov is the U.S. government's official web portal to all federal, state and local government web resources and services.